JAT811 SKCL-SCFA
Flight info
| Callsign | JAT811 |
|---|---|
| Flight time | N/A |
| Altitude | 34000 |
| Route | CLO1D CLO DCT BOKAN/N0463F330 UM795 LOBOT/N0462F340 UM795 ILROL/N0458F350 UM795 JCL UL550 XONOG UQ803 ENLUS ENLUS5A |
| Aircraft | A21N/M-SDE3FGHIRWY/LB1 |
Departure
| Time | N/A |
|---|---|
| Airport | Alfonso Bonilla Aragon International Airport (SKCL) |
Arrival
| Time | 2026-04-29 21:22 |
|---|---|
| Airport | Andrés Sabella Gálvez International Airport (SCFA) |
| Time | Latitude | Longitude | Altitude | Speed | Heading |
|---|---|---|---|---|---|
| 2026-04-29 20:13 | -16.38620 | -74.09451 | 34883 ft | 489 kts | 142° |
| 2026-04-29 20:13 | -16.41294 | -74.07275 | 34890 ft | 489 kts | 142° |
| 2026-04-29 20:14 | -16.46671 | -74.02887 | 34886 ft | 489 kts | 142° |
| 2026-04-29 20:14 | -16.52038 | -73.98497 | 34889 ft | 489 kts | 142° |
| 2026-04-29 20:15 | -16.57378 | -73.94138 | 34886 ft | 489 kts | 142° |
| 2026-04-29 20:15 | -16.62765 | -73.89768 | 34877 ft | 489 kts | 142° |
| 2026-04-29 20:16 | -16.68127 | -73.85403 | 34876 ft | 489 kts | 142° |
| 2026-04-29 20:16 | -16.73497 | -73.81016 | 34872 ft | 489 kts | 142° |
| 2026-04-29 20:17 | -16.78853 | -73.76633 | 34871 ft | 489 kts | 142° |
| 2026-04-29 20:17 | -16.84205 | -73.72250 | 34869 ft | 489 kts | 142° |
| 2026-04-29 20:18 | -16.89574 | -73.67848 | 34869 ft | 489 kts | 142° |
| 2026-04-29 20:18 | -16.94932 | -73.63455 | 34872 ft | 489 kts | 142° |
| 2026-04-29 20:19 | -17.00262 | -73.59080 | 34868 ft | 488 kts | 142° |
| 2026-04-29 20:19 | -17.05621 | -73.54680 | 34871 ft | 488 kts | 142° |
| 2026-04-29 20:20 | -17.10956 | -73.50293 | 34870 ft | 489 kts | 142° |
| 2026-04-29 20:20 | -17.16325 | -73.45901 | 34871 ft | 489 kts | 142° |
| 2026-04-29 20:21 | -17.21669 | -73.41513 | 34874 ft | 489 kts | 142° |
| 2026-04-29 20:21 | -17.27011 | -73.37115 | 34881 ft | 488 kts | 142° |
| 2026-04-29 20:22 | -17.32354 | -73.32700 | 34885 ft | 489 kts | 142° |
| 2026-04-29 20:22 | -17.37685 | -73.28272 | 34885 ft | 489 kts | 142° |
| 2026-04-29 20:23 | -17.42824 | -73.24017 | 34889 ft | 489 kts | 142° |
| 2026-04-29 20:23 | -17.48164 | -73.19598 | 34887 ft | 489 kts | 142° |
| 2026-04-29 20:24 | -17.53504 | -73.15183 | 34886 ft | 489 kts | 142° |
| 2026-04-29 20:24 | -17.58858 | -73.10751 | 34885 ft | 489 kts | 142° |
| 2026-04-29 20:25 | -17.64182 | -73.06338 | 34885 ft | 489 kts | 142° |
| 2026-04-29 20:25 | -17.69524 | -73.01910 | 34884 ft | 489 kts | 142° |
| 2026-04-29 20:26 | -17.74869 | -72.97477 | 34886 ft | 488 kts | 142° |
| 2026-04-29 20:26 | -17.80173 | -72.93069 | 34882 ft | 488 kts | 142° |
| 2026-04-29 20:27 | -17.84638 | -72.89360 | 34890 ft | 489 kts | 142° |
| 2026-04-29 20:27 | -17.90860 | -72.84183 | 34887 ft | 488 kts | 142° |
| 2026-04-29 20:28 | -17.96181 | -72.79756 | 34887 ft | 489 kts | 142° |
| 2026-04-29 20:28 | -18.01528 | -72.75299 | 34886 ft | 488 kts | 142° |
| 2026-04-29 20:29 | -18.06862 | -72.70852 | 34885 ft | 489 kts | 142° |
| 2026-04-29 20:29 | -18.12179 | -72.66419 | 34886 ft | 490 kts | 142° |
| 2026-04-29 20:30 | -18.17536 | -72.61962 | 34885 ft | 489 kts | 142° |
| 2026-04-29 20:30 | -18.22876 | -72.57501 | 34881 ft | 489 kts | 142° |
| 2026-04-29 20:31 | -18.28186 | -72.53045 | 34887 ft | 489 kts | 142° |
| 2026-04-29 20:31 | -18.33499 | -72.48585 | 34890 ft | 489 kts | 142° |
| 2026-04-29 20:32 | -18.38822 | -72.44151 | 34883 ft | 488 kts | 143° |
| 2026-04-29 20:32 | -18.44159 | -72.39717 | 34890 ft | 489 kts | 143° |
| 2026-04-29 20:33 | -18.49499 | -72.35248 | 34887 ft | 489 kts | 143° |
| 2026-04-29 20:33 | -18.54823 | -72.30763 | 34891 ft | 488 kts | 142° |
| 2026-04-29 20:34 | -18.60106 | -72.26308 | 34889 ft | 488 kts | 142° |
| 2026-04-29 20:34 | -18.65420 | -72.21833 | 34893 ft | 488 kts | 142° |
| 2026-04-29 20:35 | -18.70735 | -72.17363 | 34888 ft | 488 kts | 142° |
| 2026-04-29 20:35 | -18.76026 | -72.12910 | 34890 ft | 488 kts | 143° |
| 2026-04-29 20:36 | -18.81321 | -72.08449 | 34890 ft | 487 kts | 143° |
| 2026-04-29 20:36 | -18.86617 | -72.03986 | 34891 ft | 488 kts | 142° |
| 2026-04-29 20:37 | -18.91951 | -71.99487 | 34889 ft | 488 kts | 142° |
| 2026-04-29 20:37 | -18.97254 | -71.95005 | 34886 ft | 488 kts | 143° |
| 2026-04-29 20:38 | -19.02559 | -71.90521 | 34890 ft | 488 kts | 143° |
| 2026-04-29 20:38 | -19.07858 | -71.86039 | 34885 ft | 487 kts | 143° |
| 2026-04-29 20:39 | -19.13132 | -71.81587 | 34885 ft | 488 kts | 143° |
| 2026-04-29 20:39 | -19.18437 | -71.77113 | 34893 ft | 487 kts | 143° |
| 2026-04-29 20:40 | -19.23740 | -71.72626 | 34892 ft | 488 kts | 143° |
| 2026-04-29 20:40 | -19.29036 | -71.68130 | 34901 ft | 487 kts | 143° |
| 2026-04-29 20:41 | -19.34347 | -71.63622 | 34907 ft | 488 kts | 143° |
| 2026-04-29 20:41 | -19.39609 | -71.59148 | 34907 ft | 487 kts | 143° |
| 2026-04-29 20:42 | -19.44912 | -71.54636 | 34904 ft | 486 kts | 143° |
| 2026-04-29 20:42 | -19.50199 | -71.50133 | 34906 ft | 487 kts | 143° |
| 2026-04-29 20:43 | -19.55468 | -71.45639 | 34909 ft | 487 kts | 143° |
| 2026-04-29 20:43 | -19.60744 | -71.41141 | 34908 ft | 487 kts | 143° |
| 2026-04-29 20:44 | -19.66028 | -71.36629 | 34911 ft | 487 kts | 143° |
| 2026-04-29 20:44 | -19.71298 | -71.32105 | 34904 ft | 486 kts | 142° |
| 2026-04-29 20:45 | -19.76538 | -71.27595 | 34907 ft | 487 kts | 143° |
| 2026-04-29 20:45 | -19.81825 | -71.23059 | 34904 ft | 486 kts | 143° |
| 2026-04-29 20:46 | -19.87071 | -71.18562 | 34906 ft | 484 kts | 143° |
| 2026-04-29 20:46 | -19.92306 | -71.14069 | 34909 ft | 484 kts | 143° |
| 2026-04-29 20:47 | -19.97537 | -71.09580 | 34906 ft | 484 kts | 143° |
| 2026-04-29 20:47 | -20.02804 | -71.05053 | 34906 ft | 484 kts | 143° |
| 2026-04-29 20:48 | -20.08040 | -71.00552 | 34908 ft | 483 kts | 143° |
| 2026-04-29 20:48 | -20.13283 | -70.96042 | 34912 ft | 483 kts | 143° |
| 2026-04-29 20:49 | -20.18496 | -70.91570 | 34905 ft | 481 kts | 143° |
| 2026-04-29 20:49 | -20.23713 | -70.87077 | 34904 ft | 483 kts | 143° |
| 2026-04-29 20:50 | -20.28931 | -70.82561 | 34907 ft | 483 kts | 143° |
| 2026-04-29 20:50 | -20.34148 | -70.78036 | 34905 ft | 483 kts | 143° |
| 2026-04-29 20:51 | -20.39352 | -70.73539 | 34905 ft | 482 kts | 143° |
| 2026-04-29 20:51 | -20.44594 | -70.69022 | 34907 ft | 481 kts | 143° |
| 2026-04-29 20:52 | -20.49775 | -70.64530 | 34904 ft | 482 kts | 143° |
| 2026-04-29 20:52 | -20.55003 | -70.59980 | 34902 ft | 483 kts | 143° |
| 2026-04-29 20:53 | -20.60213 | -70.55441 | 34903 ft | 483 kts | 143° |
| 2026-04-29 20:53 | -20.65421 | -70.50926 | 34901 ft | 482 kts | 143° |
| 2026-04-29 20:54 | -20.73243 | -70.44154 | 34902 ft | 483 kts | 144° |
| 2026-04-29 20:55 | -20.78466 | -70.39603 | 34902 ft | 482 kts | 143° |
| 2026-04-29 20:55 | -20.83637 | -70.35086 | 34896 ft | 483 kts | 143° |
| 2026-04-29 20:56 | -20.88841 | -70.30511 | 34900 ft | 482 kts | 143° |
| 2026-04-29 20:56 | -20.94139 | -70.26109 | 34886 ft | 479 kts | 151° |
| 2026-04-29 20:57 | -21.00102 | -70.23095 | 34903 ft | 470 kts | 167° |
| 2026-04-29 20:57 | -21.06458 | -70.21842 | 34898 ft | 463 kts | 183° |
| 2026-04-29 20:58 | -21.12914 | -70.21824 | 34903 ft | 465 kts | 187° |
| 2026-04-29 20:58 | -21.19389 | -70.21905 | 34694 ft | 459 kts | 187° |
| 2026-04-29 20:58 | -21.22577 | -70.21933 | 34172 ft | 457 kts | 187° |
| 2026-04-29 20:59 | -21.25715 | -70.21954 | 33592 ft | 454 kts | 186° |
| 2026-04-29 20:59 | -21.28880 | -70.21972 | 33064 ft | 450 kts | 186° |
| 2026-04-29 20:59 | -21.32018 | -70.21987 | 32545 ft | 448 kts | 185° |
| 2026-04-29 20:59 | -21.35106 | -70.22001 | 32035 ft | 445 kts | 185° |
| 2026-04-29 21:00 | -21.38235 | -70.22012 | 31791 ft | 447 kts | 185° |
| 2026-04-29 21:00 | -21.41345 | -70.22025 | 31552 ft | 449 kts | 185° |
| 2026-04-29 21:00 | -21.44463 | -70.22034 | 31309 ft | 450 kts | 184° |
| 2026-04-29 21:00 | -21.47630 | -70.22045 | 31063 ft | 451 kts | 184° |
| 2026-04-29 21:01 | -21.50753 | -70.22055 | 30814 ft | 451 kts | 184° |
| 2026-04-29 21:01 | -21.53925 | -70.22066 | 30457 ft | 452 kts | 184° |
| 2026-04-29 21:01 | -21.57042 | -70.22076 | 29986 ft | 453 kts | 184° |
| 2026-04-29 21:01 | -21.60208 | -70.22088 | 29405 ft | 454 kts | 183° |
| 2026-04-29 21:02 | -21.63388 | -70.22099 | 28751 ft | 454 kts | 183° |
| 2026-04-29 21:02 | -21.66523 | -70.22108 | 28066 ft | 454 kts | 183° |
| 2026-04-29 21:02 | -21.69715 | -70.22110 | 27339 ft | 455 kts | 182° |
| 2026-04-29 21:02 | -21.72864 | -70.22109 | 26648 ft | 455 kts | 183° |
| 2026-04-29 21:03 | -21.76034 | -70.22111 | 26183 ft | 450 kts | 183° |
| 2026-04-29 21:03 | -21.79147 | -70.22116 | 25716 ft | 446 kts | 182° |
| 2026-04-29 21:03 | -21.82215 | -70.22127 | 25244 ft | 442 kts | 182° |
| 2026-04-29 21:03 | -21.85296 | -70.22140 | 24771 ft | 438 kts | 183° |
| 2026-04-29 21:04 | -21.88344 | -70.22228 | 24291 ft | 433 kts | 186° |
| 2026-04-29 21:04 | -21.91338 | -70.22503 | 23811 ft | 429 kts | 189° |
| 2026-04-29 21:04 | -21.94256 | -70.22928 | 23330 ft | 425 kts | 191° |
| 2026-04-29 21:04 | -21.97187 | -70.23391 | 22853 ft | 422 kts | 191° |
| 2026-04-29 21:05 | -22.00101 | -70.23858 | 22380 ft | 419 kts | 191° |
| 2026-04-29 21:05 | -22.02960 | -70.24315 | 21923 ft | 417 kts | 191° |
| 2026-04-29 21:05 | -22.05829 | -70.24772 | 21459 ft | 414 kts | 190° |
| 2026-04-29 21:05 | -22.08678 | -70.25223 | 21017 ft | 412 kts | 190° |
| 2026-04-29 21:06 | -22.11534 | -70.25673 | 20544 ft | 410 kts | 190° |
| 2026-04-29 21:06 | -22.14322 | -70.26111 | 20080 ft | 407 kts | 189° |
| 2026-04-29 21:06 | -22.17131 | -70.26550 | 19631 ft | 405 kts | 189° |
| 2026-04-29 21:06 | -22.19929 | -70.26990 | 19189 ft | 402 kts | 189° |
| 2026-04-29 21:07 | -22.22705 | -70.27425 | 18732 ft | 400 kts | 189° |
| 2026-04-29 21:07 | -22.25438 | -70.27855 | 18298 ft | 398 kts | 188° |
| 2026-04-29 21:07 | -22.28182 | -70.28287 | 17837 ft | 396 kts | 188° |
| 2026-04-29 21:07 | -22.30912 | -70.28717 | 17404 ft | 394 kts | 188° |
| 2026-04-29 21:08 | -22.33597 | -70.29139 | 16953 ft | 392 kts | 188° |
| 2026-04-29 21:08 | -22.36296 | -70.29562 | 16475 ft | 390 kts | 188° |
| 2026-04-29 21:08 | -22.38984 | -70.29984 | 16027 ft | 387 kts | 188° |
| 2026-04-29 21:08 | -22.41657 | -70.30404 | 15584 ft | 385 kts | 188° |
| 2026-04-29 21:09 | -22.44312 | -70.30822 | 15135 ft | 383 kts | 188° |
| 2026-04-29 21:09 | -22.46920 | -70.31234 | 14780 ft | 381 kts | 187° |
| 2026-04-29 21:09 | -22.49560 | -70.31651 | 14316 ft | 379 kts | 187° |
| 2026-04-29 21:09 | -22.52175 | -70.32065 | 13896 ft | 377 kts | 187° |
| 2026-04-29 21:10 | -22.54757 | -70.32472 | 13480 ft | 374 kts | 187° |
| 2026-04-29 21:10 | -22.57321 | -70.32877 | 13032 ft | 371 kts | 187° |
| 2026-04-29 21:10 | -22.59892 | -70.33282 | 12654 ft | 369 kts | 187° |
| 2026-04-29 21:10 | -22.62423 | -70.33682 | 12252 ft | 367 kts | 187° |
| 2026-04-29 21:11 | -22.64944 | -70.34080 | 11799 ft | 366 kts | 187° |
| 2026-04-29 21:11 | -22.67467 | -70.34479 | 11359 ft | 365 kts | 187° |
| 2026-04-29 21:11 | -22.69968 | -70.34873 | 10913 ft | 363 kts | 187° |
| 2026-04-29 21:11 | -22.72463 | -70.35267 | 10495 ft | 361 kts | 187° |
| 2026-04-29 21:12 | -22.74942 | -70.35659 | 10262 ft | 351 kts | 187° |
| 2026-04-29 21:12 | -22.77336 | -70.36038 | 10141 ft | 337 kts | 187° |
| 2026-04-29 21:12 | -22.79596 | -70.36395 | 10053 ft | 324 kts | 187° |
| 2026-04-29 21:12 | -22.81788 | -70.36742 | 9936 ft | 312 kts | 187° |
| 2026-04-29 21:13 | -22.83923 | -70.37079 | 9607 ft | 308 kts | 187° |
| 2026-04-29 21:13 | -22.86052 | -70.37416 | 9291 ft | 306 kts | 187° |
| 2026-04-29 21:13 | -22.88140 | -70.37746 | 8954 ft | 303 kts | 187° |
| 2026-04-29 21:13 | -22.90228 | -70.38020 | 8657 ft | 300 kts | 186° |
| 2026-04-29 21:14 | -22.92315 | -70.38264 | 8338 ft | 296 kts | 186° |
| 2026-04-29 21:14 | -22.94354 | -70.38497 | 8049 ft | 293 kts | 186° |
| 2026-04-29 21:14 | -22.96377 | -70.38729 | 7739 ft | 290 kts | 186° |
| 2026-04-29 21:14 | -22.98366 | -70.38957 | 7419 ft | 286 kts | 186° |
| 2026-04-29 21:15 | -23.00334 | -70.39185 | 7128 ft | 283 kts | 186° |
| 2026-04-29 21:15 | -23.02276 | -70.39411 | 6833 ft | 280 kts | 187° |
| 2026-04-29 21:15 | -23.04204 | -70.39636 | 6546 ft | 277 kts | 187° |
| 2026-04-29 21:15 | -23.06115 | -70.39861 | 6237 ft | 274 kts | 187° |
| 2026-04-29 21:16 | -23.08023 | -70.40091 | 5933 ft | 271 kts | 187° |
| 2026-04-29 21:16 | -23.09888 | -70.40329 | 5645 ft | 269 kts | 187° |
| 2026-04-29 21:16 | -23.11751 | -70.40556 | 5335 ft | 267 kts | 187° |
| 2026-04-29 21:16 | -23.13590 | -70.40776 | 5030 ft | 265 kts | 187° |
| 2026-04-29 21:17 | -23.15413 | -70.40992 | 4737 ft | 262 kts | 187° |
| 2026-04-29 21:17 | -23.17239 | -70.41210 | 4450 ft | 259 kts | 187° |
| 2026-04-29 21:17 | -23.19012 | -70.41425 | 4237 ft | 253 kts | 187° |
| 2026-04-29 21:17 | -23.20738 | -70.41636 | 4034 ft | 247 kts | 187° |
| 2026-04-29 21:18 | -23.22424 | -70.41841 | 3833 ft | 240 kts | 187° |
| 2026-04-29 21:18 | -23.24098 | -70.42045 | 3642 ft | 239 kts | 187° |
| 2026-04-29 21:18 | -23.25752 | -70.42246 | 3456 ft | 237 kts | 187° |
| 2026-04-29 21:18 | -23.27368 | -70.42441 | 3282 ft | 229 kts | 187° |
| 2026-04-29 21:19 | -23.28933 | -70.42622 | 3130 ft | 224 kts | 187° |
| 2026-04-29 21:19 | -23.30484 | -70.42810 | 2981 ft | 224 kts | 187° |
| 2026-04-29 21:19 | -23.32052 | -70.43000 | 2837 ft | 223 kts | 187° |
| 2026-04-29 21:19 | -23.33589 | -70.43188 | 2658 ft | 221 kts | 187° |
| 2026-04-29 21:20 | -23.35070 | -70.43366 | 2383 ft | 207 kts | 187° |
| 2026-04-29 21:20 | -23.36476 | -70.43537 | 1979 ft | 198 kts | 187° |
| 2026-04-29 21:20 | -23.37804 | -70.43699 | 1726 ft | 184 kts | 186° |
| 2026-04-29 21:20 | -23.39050 | -70.43851 | 1397 ft | 174 kts | 186° |
| 2026-04-29 21:21 | -23.40219 | -70.43994 | 1137 ft | 162 kts | 186° |
| 2026-04-29 21:21 | -23.41307 | -70.44130 | 886 ft | 153 kts | 186° |
| 2026-04-29 21:21 | -23.42362 | -70.44257 | 700 ft | 152 kts | 186° |
| 2026-04-29 21:21 | -23.43417 | -70.44380 | 491 ft | 151 kts | 186° |
| 2026-04-29 21:22 | -23.44403 | -70.44504 | 400 ft | 129 kts | 184° |
| 2026-04-29 21:22 | -23.45131 | -70.44589 | 375 ft | 79 kts | 186° |
| 2026-04-29 21:22 | -23.45510 | -70.44633 | 363 ft | 29 kts | 185° |
| 2026-04-29 21:22 | -23.45593 | -70.44647 | 360 ft | 4 kts | 274° |
| 2026-04-29 21:23 | -23.45551 | -70.44648 | 361 ft | 12 kts | 7° |
| 2026-04-29 21:23 | -23.45449 | -70.44632 | 365 ft | 14 kts | 8° |
| 2026-04-29 21:23 | -23.45355 | -70.44616 | 369 ft | 12 kts | 9° |
| 2026-04-29 21:23 | -23.45272 | -70.44604 | 373 ft | 11 kts | 5° |
| 2026-04-29 21:24 | -23.45214 | -70.44567 | 372 ft | 8 kts | 70° |
| 2026-04-29 21:24 | -23.45215 | -70.44508 | 375 ft | 7 kts | 97° |
| 2026-04-29 21:24 | -23.45217 | -70.44445 | 376 ft | 9 kts | 72° |
| 2026-04-29 21:24 | -23.45157 | -70.44399 | 378 ft | 13 kts | 11° |
| 2026-04-29 21:25 | -23.45054 | -70.44385 | 381 ft | 16 kts | 6° |
| 2026-04-29 21:25 | -23.44985 | -70.44342 | 383 ft | 10 kts | 98° |
| 2026-04-29 21:25 | -23.44958 | -70.44267 | 385 ft | 11 kts | 23° |
| 2026-04-29 21:25 | -23.44886 | -70.44256 | 387 ft | 7 kts | 6° |
| 2026-04-29 21:26 | -23.44867 | -70.44207 | 388 ft | 9 kts | 96° |
| 2026-04-29 21:26 | -23.44872 | -70.44162 | 389 ft | 0 kts | 95° |